createdAt,value
2018-07-13T00:00:36.669Z,56.70
2018-07-13T00:03:05.396Z,57.20
2018-07-13T00:05:34.021Z,57.10
2018-07-13T00:08:02.573Z,57.10
2018-07-13T00:10:31.842Z,57.50
2018-07-13T00:13:00.527Z,57.00
2018-07-13T00:15:29.424Z,57.20
2018-07-13T00:17:57.939Z,57.20
2018-07-13T00:20:29.228Z,57.20
2018-07-13T00:23:02.274Z,57.20
2018-07-13T00:25:32.228Z,57.10
2018-07-13T00:28:00.923Z,57.20
2018-07-13T00:30:29.528Z,57.30
2018-07-13T00:32:58.373Z,57.40
2018-07-13T00:35:26.980Z,57.40
2018-07-13T00:37:55.637Z,57.40
2018-07-13T00:40:24.811Z,57.40
2018-07-13T00:42:53.531Z,57.60
2018-07-13T00:45:22.177Z,58.00
2018-07-13T00:47:50.769Z,58.20
2018-07-13T00:50:19.864Z,58.40
2018-07-13T00:52:48.624Z,58.60
2018-07-13T00:55:17.309Z,58.60
2018-07-13T00:57:46.008Z,58.70
2018-07-13T01:00:14.550Z,58.70
2018-07-13T01:02:43.072Z,58.70
2018-07-13T01:05:11.797Z,58.70
2018-07-13T01:07:40.487Z,58.80
2018-07-13T01:10:09.063Z,59.00
2018-07-13T01:12:38.083Z,59.00
2018-07-13T01:15:07.006Z,59.00
2018-07-13T01:17:35.580Z,59.10
2018-07-13T01:20:04.239Z,59.00
2018-07-13T01:22:33.137Z,59.10
2018-07-13T01:25:01.731Z,59.10
2018-07-13T01:27:30.473Z,59.20
2018-07-13T01:29:59.965Z,59.10
2018-07-13T01:32:28.583Z,59.20
2018-07-13T01:34:57.115Z,59.30
2018-07-13T01:37:25.850Z,59.40
2018-07-13T01:42:22.758Z,59.80
2018-07-13T01:44:51.449Z,59.80
2018-07-13T01:47:20.227Z,59.80
2018-07-13T01:49:48.919Z,59.90
2018-07-13T01:52:18.137Z,60.00
2018-07-13T01:54:46.709Z,60.00
2018-07-13T01:57:16.623Z,60.20
2018-07-13T01:59:45.269Z,60.50
2018-07-13T02:02:14.960Z,60.60
2018-07-13T02:04:43.513Z,60.60
2018-07-13T02:07:12.111Z,60.60
2018-07-13T02:09:41.308Z,60.70
2018-07-13T02:12:11.013Z,60.70
2018-07-13T02:17:08.479Z,61.00
2018-07-13T02:19:37.468Z,61.20
2018-07-13T02:22:06.118Z,61.30
2018-07-13T02:24:34.761Z,61.50
2018-07-13T02:27:03.598Z,61.50
2018-07-13T02:29:32.259Z,61.80
2018-07-13T02:32:00.826Z,61.50
2018-07-13T02:34:29.655Z,61.50
2018-07-13T02:36:58.698Z,61.50
2018-07-13T02:39:27.337Z,61.40
2018-07-13T02:41:56.280Z,61.40
2018-07-13T02:44:26.062Z,61.50
2018-07-13T02:46:56.032Z,62.40
2018-07-13T02:49:24.983Z,61.70
2018-07-13T02:51:55.226Z,62.00
2018-07-13T02:54:24.355Z,62.10
2018-07-13T02:56:55.320Z,62.30
2018-07-13T02:59:25.337Z,62.30
2018-07-13T03:01:55.188Z,62.50
2018-07-13T03:04:24.265Z,62.60
2018-07-13T03:06:52.941Z,62.80
2018-07-13T03:09:21.605Z,62.90
2018-07-13T03:11:50.245Z,63.00
2018-07-13T03:16:47.763Z,63.10
2018-07-13T03:19:17.056Z,63.10
2018-07-13T03:21:45.710Z,63.30
2018-07-13T03:24:14.415Z,63.70
2018-07-13T03:26:43.058Z,64.10
2018-07-13T03:29:11.952Z,64.50
2018-07-13T03:31:40.963Z,64.30
2018-07-13T03:34:09.634Z,64.70
2018-07-13T03:36:38.838Z,64.90
2018-07-13T03:39:07.498Z,64.70
2018-07-13T03:41:36.132Z,64.70
2018-07-13T03:44:04.705Z,65.00
2018-07-13T03:46:33.316Z,64.80
2018-07-13T03:49:02.242Z,64.90
2018-07-13T03:51:30.847Z,65.00
2018-07-13T03:53:59.382Z,65.20
2018-07-13T03:56:28.384Z,65.10
2018-07-13T03:58:57.023Z,65.20
2018-07-13T04:01:25.658Z,65.20
2018-07-13T04:03:54.274Z,65.20
2018-07-13T04:06:23.083Z,65.20
2018-07-13T04:08:52.033Z,65.20
2018-07-13T04:11:20.861Z,65.40
2018-07-13T04:13:49.511Z,65.30
2018-07-13T04:16:18.523Z,65.10
2018-07-13T04:18:48.114Z,65.40
2018-07-13T04:21:17.300Z,65.40
2018-07-13T04:23:46.423Z,65.20
2018-07-13T04:26:15.298Z,65.10
2018-07-13T04:28:44.019Z,65.20
2018-07-13T04:31:12.563Z,65.20
2018-07-13T04:33:41.365Z,65.40
2018-07-13T04:36:10.069Z,65.20
2018-07-13T04:38:38.788Z,65.20
2018-07-13T04:41:07.442Z,65.10
2018-07-13T04:43:35.950Z,65.20
2018-07-13T04:46:04.963Z,65.20
2018-07-13T04:48:34.209Z,65.30
2018-07-13T04:51:02.288Z,65.50
2018-07-13T04:53:30.927Z,65.70
2018-07-13T04:55:59.772Z,66.70
2018-07-13T04:58:28.717Z,66.00
2018-07-13T05:00:57.459Z,66.10
2018-07-13T05:03:26.111Z,66.20
2018-07-13T05:05:54.799Z,66.10
2018-07-13T05:08:23.497Z,66.20
2018-07-13T05:10:54.973Z,66.10
2018-07-13T05:13:24.393Z,66.10
2018-07-13T05:15:53.305Z,65.90
2018-07-13T05:18:22.306Z,65.80
2018-07-13T05:20:51.137Z,65.90
2018-07-13T05:23:19.791Z,65.80
2018-07-13T05:25:49.524Z,65.70
2018-07-13T05:28:18.214Z,65.90
2018-07-13T05:30:47.132Z,66.00
2018-07-13T05:33:15.799Z,66.00
2018-07-13T05:35:44.449Z,65.80
2018-07-13T05:38:13.076Z,66.10
2018-07-13T05:40:41.703Z,65.90
2018-07-13T05:43:10.827Z,65.70
2018-07-13T05:45:39.729Z,65.60
2018-07-13T05:48:08.468Z,65.60
2018-07-13T05:50:37.063Z,65.50
2018-07-13T05:53:06.127Z,65.50
2018-07-13T05:55:35.051Z,65.60
2018-07-13T05:58:03.754Z,65.30
2018-07-13T06:00:32.387Z,65.00
2018-07-13T06:03:01.003Z,64.60
2018-07-13T06:05:29.670Z,64.50
2018-07-13T06:07:58.256Z,64.60
2018-07-13T06:10:26.849Z,64.10
2018-07-13T06:12:55.520Z,63.90
2018-07-13T06:15:24.043Z,63.70
2018-07-13T06:17:52.623Z,63.50
2018-07-13T06:20:21.225Z,63.20
2018-07-13T06:22:49.813Z,63.20
2018-07-13T06:25:18.613Z,63.90
2018-07-13T06:27:47.353Z,62.80
2018-07-13T06:30:15.962Z,62.60
2018-07-13T06:32:44.996Z,62.40
2018-07-13T06:35:13.517Z,62.10
2018-07-13T06:37:42.824Z,62.30
2018-07-13T06:40:11.527Z,62.20
2018-07-13T06:42:40.289Z,61.70
2018-07-13T06:45:09.004Z,61.20
2018-07-13T06:47:38.427Z,61.10
2018-07-13T06:50:07.298Z,60.70
2018-07-13T06:52:36.054Z,60.60
2018-07-13T06:55:04.714Z,60.10
2018-07-13T06:57:44.605Z,59.80
2018-07-13T07:01:16.472Z,59.40
2018-07-13T07:04:19.438Z,59.30
2018-07-13T07:06:48.172Z,59.10
2018-07-13T07:09:16.788Z,59.00
2018-07-13T07:11:56.757Z,59.00
2018-07-13T07:14:25.324Z,59.10
2018-07-13T07:16:53.989Z,59.10
2018-07-13T07:19:25.901Z,57.20
2018-07-13T07:21:54.489Z,56.60
2018-07-13T07:24:23.053Z,57.10
2018-07-13T07:26:52.016Z,57.10
2018-07-13T07:29:20.740Z,57.50
2018-07-13T07:31:50.457Z,56.60
2018-07-13T07:34:19.532Z,55.30
2018-07-13T07:36:48.289Z,54.80
2018-07-13T07:39:16.954Z,53.90
2018-07-13T07:41:45.575Z,52.50
2018-07-13T07:44:14.136Z,51.60
2018-07-13T07:46:42.692Z,51.40
2018-07-13T07:49:11.499Z,50.60
2018-07-13T07:54:08.468Z,50.20
2018-07-13T07:56:37.129Z,49.80
2018-07-13T07:59:06.136Z,49.20
2018-07-13T08:01:35.143Z,49.00
2018-07-13T08:04:05.662Z,48.00
2018-07-13T08:06:34.581Z,47.00
2018-07-13T08:09:05.264Z,46.90
2018-07-13T08:11:34.076Z,47.00
2018-07-13T08:14:04.691Z,47.30
2018-07-13T08:16:34.209Z,47.70
2018-07-13T08:19:03.379Z,47.30
2018-07-13T08:21:32.361Z,47.20
2018-07-13T08:24:03.315Z,46.70
2018-07-13T08:26:32.066Z,47.20
2018-07-13T08:29:00.783Z,45.80
2018-07-13T08:31:29.381Z,45.80
2018-07-13T08:33:59.215Z,45.10
2018-07-13T08:36:27.758Z,44.60
2018-07-13T08:38:56.307Z,45.30
2018-07-13T08:41:25.209Z,45.40
2018-07-13T08:43:54.584Z,44.30
2018-07-13T08:46:23.417Z,44.30
2018-07-13T08:48:52.611Z,43.50
2018-07-13T08:51:21.909Z,42.90
2018-07-13T08:53:52.004Z,42.10
2018-07-13T08:56:20.752Z,42.30
2018-07-13T08:58:49.566Z,41.80
2018-07-13T09:01:18.449Z,43.00
2018-07-13T09:03:48.059Z,42.30
2018-07-13T09:06:16.812Z,41.30
2018-07-13T09:08:45.966Z,41.80
2018-07-13T09:11:15.076Z,41.70
2018-07-13T09:13:43.910Z,42.10
2018-07-13T09:16:13.719Z,41.50
2018-07-13T09:18:42.375Z,40.40
2018-07-13T09:21:10.914Z,40.30
2018-07-13T09:23:40.700Z,41.10
2018-07-13T09:26:09.599Z,41.60
2018-07-13T09:28:39.205Z,41.10
2018-07-13T09:31:10.063Z,40.70
2018-07-13T09:33:38.709Z,40.10
2018-07-13T09:36:07.829Z,39.80
2018-07-13T09:38:36.442Z,40.20
2018-07-13T09:41:05.145Z,41.00
2018-07-13T09:43:34.052Z,40.10
2018-07-13T09:46:03.440Z,38.90
2018-07-13T09:48:32.320Z,38.40
2018-07-13T09:51:01.102Z,38.50
2018-07-13T09:53:29.769Z,39.40
2018-07-13T09:55:58.375Z,39.30
2018-07-13T09:58:34.700Z,39.20
2018-07-13T10:01:09.254Z,39.30
2018-07-13T10:03:38.263Z,40.00
2018-07-13T10:06:06.904Z,40.00
2018-07-13T10:08:35.905Z,40.60
2018-07-13T10:11:04.629Z,41.00
2018-07-13T10:13:34.000Z,41.40
2018-07-13T10:16:03.003Z,40.50
2018-07-13T10:18:32.418Z,40.90
2018-07-13T10:21:01.401Z,40.90
2018-07-13T10:23:30.541Z,41.30
2018-07-13T10:26:03.841Z,41.20
2018-07-13T10:28:34.769Z,40.50
2018-07-13T10:31:03.496Z,40.80
2018-07-13T10:33:33.710Z,40.40
2018-07-13T10:36:02.418Z,40.00
2018-07-13T10:38:31.436Z,40.50
2018-07-13T10:41:00.148Z,40.20
2018-07-13T10:43:28.831Z,40.30
2018-07-13T10:45:57.493Z,40.40
2018-07-13T10:48:26.322Z,39.40
2018-07-13T10:50:54.907Z,39.50
2018-07-13T10:53:23.446Z,39.20
2018-07-13T10:55:52.741Z,39.00
2018-07-13T10:58:21.440Z,38.60
2018-07-13T11:00:49.993Z,39.10
2018-07-13T11:05:48.008Z,38.60
2018-07-13T11:08:17.614Z,37.30
2018-07-13T11:10:46.271Z,38.10
2018-07-13T11:13:14.936Z,37.90
2018-07-13T11:15:43.559Z,38.00
2018-07-13T11:18:12.186Z,37.80
2018-07-13T11:20:40.937Z,37.70
2018-07-13T11:23:09.511Z,37.70
2018-07-13T11:25:38.868Z,37.30
2018-07-13T11:28:07.480Z,37.10
2018-07-13T11:30:35.969Z,37.60
2018-07-13T11:33:04.530Z,37.40
2018-07-13T11:35:33.076Z,37.40
2018-07-13T11:38:01.719Z,37.00
2018-07-13T11:40:30.279Z,36.70
2018-07-13T11:42:59.116Z,37.20
2018-07-13T11:45:28.141Z,36.70
2018-07-13T11:47:56.785Z,36.80
2018-07-13T11:50:25.376Z,35.40
2018-07-13T11:52:54.480Z,36.40
2018-07-13T11:55:23.073Z,36.40
2018-07-13T11:57:51.881Z,36.60
2018-07-13T12:00:20.442Z,37.20
2018-07-13T12:02:49.102Z,36.10
2018-07-13T12:05:17.697Z,36.20
2018-07-13T12:07:46.970Z,35.70
2018-07-13T12:10:15.459Z,35.40
2018-07-13T12:12:44.152Z,34.80
2018-07-13T12:15:12.561Z,34.40
2018-07-13T12:17:41.222Z,35.50
2018-07-13T12:20:09.700Z,34.70
2018-07-13T12:22:38.928Z,35.00
2018-07-13T12:25:07.543Z,35.50
2018-07-13T12:27:36.095Z,36.10
2018-07-13T12:30:04.626Z,36.00
2018-07-13T12:32:33.466Z,35.30
2018-07-13T12:35:02.051Z,36.20
2018-07-13T12:37:30.757Z,35.50
2018-07-13T12:39:59.310Z,36.20
2018-07-13T12:42:27.792Z,36.10
2018-07-13T12:44:56.923Z,34.10
2018-07-13T12:47:25.493Z,34.60
2018-07-13T12:49:54.023Z,35.00
2018-07-13T12:52:23.229Z,34.20
2018-07-13T12:54:51.881Z,33.90
2018-07-13T12:57:20.903Z,34.80
2018-07-13T12:59:49.454Z,34.70
2018-07-13T13:02:18.076Z,34.70
2018-07-13T13:04:46.683Z,35.10
2018-07-13T13:07:15.744Z,35.00
2018-07-13T13:09:44.451Z,34.40
2018-07-13T13:12:12.937Z,34.40
2018-07-13T13:14:41.446Z,33.60
2018-07-13T13:17:09.983Z,33.80
2018-07-13T13:19:38.669Z,33.40
2018-07-13T13:22:07.390Z,33.70
2018-07-13T13:24:35.937Z,33.50
2018-07-13T13:27:04.524Z,34.20
2018-07-13T13:29:33.241Z,33.90
2018-07-13T13:32:02.405Z,34.20
2018-07-13T13:34:30.987Z,33.50
2018-07-13T13:36:59.553Z,33.70
2018-07-13T13:39:28.106Z,33.60
2018-07-13T13:41:56.642Z,34.20
2018-07-13T13:44:25.719Z,34.20
2018-07-13T13:46:54.424Z,35.20
2018-07-13T13:49:23.387Z,34.70
2018-07-13T13:51:52.378Z,33.90
2018-07-13T13:54:20.977Z,34.80
2018-07-13T13:56:49.491Z,34.60
2018-07-13T13:59:18.217Z,34.70
2018-07-13T14:01:46.818Z,34.60
2018-07-13T14:04:15.454Z,34.50
2018-07-13T14:06:43.948Z,34.60
2018-07-13T14:09:12.534Z,34.80
2018-07-13T14:14:09.311Z,34.30
2018-07-13T14:16:37.957Z,34.30
2018-07-13T14:19:06.497Z,34.20
2018-07-13T14:21:34.994Z,33.80
2018-07-13T14:24:03.725Z,33.80
2018-07-13T14:26:32.604Z,34.10
2018-07-13T14:29:01.168Z,34.30
2018-07-13T14:31:29.728Z,34.90
2018-07-13T14:33:58.241Z,34.50
2018-07-13T14:36:26.753Z,34.70
2018-07-13T14:38:55.300Z,34.40
2018-07-13T14:41:24.357Z,34.40
2018-07-13T14:43:53.233Z,34.00
2018-07-13T14:46:22.114Z,34.10
2018-07-13T14:48:51.399Z,33.90
2018-07-13T14:51:20.355Z,32.80
2018-07-13T14:53:49.062Z,33.00
2018-07-13T14:56:18.073Z,33.20
2018-07-13T14:58:46.655Z,33.30
2018-07-13T15:01:15.710Z,33.10
2018-07-13T15:03:44.240Z,33.60
2018-07-13T15:06:12.895Z,33.80
2018-07-13T15:08:41.396Z,33.60
2018-07-13T15:11:10.368Z,33.80
2018-07-13T15:13:39.054Z,34.50
2018-07-13T15:16:07.608Z,33.50
2018-07-13T15:18:36.143Z,33.50
2018-07-13T15:21:04.927Z,33.60
2018-07-13T15:23:33.609Z,33.30
2018-07-13T15:26:02.161Z,33.20
2018-07-13T15:28:30.808Z,33.10
2018-07-13T15:30:59.362Z,32.30
2018-07-13T15:33:27.894Z,32.80
2018-07-13T15:35:56.428Z,32.80
2018-07-13T15:38:25.334Z,32.30
2018-07-13T15:40:54.201Z,33.20
2018-07-13T15:43:22.919Z,33.40
2018-07-13T15:45:51.403Z,33.50
2018-07-13T15:48:20.036Z,32.50
2018-07-13T15:50:48.712Z,32.10
2018-07-13T15:53:17.225Z,32.80
2018-07-13T15:55:51.265Z,33.60
2018-07-13T15:58:20.047Z,33.10
2018-07-13T16:00:48.952Z,33.40
2018-07-13T16:03:17.631Z,32.50
2018-07-13T16:05:46.663Z,32.70
2018-07-13T16:08:15.543Z,32.80
2018-07-13T16:10:44.272Z,32.70
2018-07-13T16:13:12.818Z,32.90
2018-07-13T16:15:41.514Z,32.60
2018-07-13T16:18:10.025Z,32.50
2018-07-13T16:20:39.036Z,32.20
2018-07-13T16:23:07.649Z,32.90
2018-07-13T16:25:36.163Z,32.20
2018-07-13T16:28:04.953Z,32.10
2018-07-13T16:30:33.546Z,33.20
2018-07-13T16:33:02.122Z,33.70
2018-07-13T16:35:30.630Z,34.50
2018-07-13T16:37:59.510Z,34.80
2018-07-13T16:40:28.100Z,34.30
2018-07-13T16:42:56.588Z,34.70
2018-07-13T16:45:25.420Z,34.90
2018-07-13T16:47:54.326Z,35.30
2018-07-13T16:50:23.214Z,35.00
2018-07-13T16:52:51.899Z,33.80
2018-07-13T16:55:20.953Z,33.80
2018-07-13T16:57:49.556Z,33.70
2018-07-13T17:00:18.578Z,33.70
2018-07-13T17:02:47.367Z,33.60
2018-07-13T17:05:16.199Z,33.20
2018-07-13T17:07:45.218Z,33.10
2018-07-13T17:10:13.733Z,33.10
2018-07-13T17:12:42.269Z,33.20
2018-07-13T17:15:10.863Z,33.00
2018-07-13T17:17:39.645Z,32.80
2018-07-13T17:20:08.257Z,32.90
2018-07-13T17:22:36.765Z,33.70
2018-07-13T17:25:06.234Z,33.40
2018-07-13T17:27:34.752Z,33.50
2018-07-13T17:30:03.618Z,33.40
2018-07-13T17:32:32.170Z,33.70
2018-07-13T17:35:00.713Z,33.70
2018-07-13T17:37:29.255Z,33.80
2018-07-13T17:39:58.105Z,33.90
2018-07-13T17:42:26.749Z,33.70
2018-07-13T17:44:55.330Z,33.60
2018-07-13T17:47:24.545Z,33.30
2018-07-13T17:49:54.240Z,33.90
2018-07-13T17:52:23.360Z,33.50
2018-07-13T17:54:51.916Z,33.60
2018-07-13T17:57:20.506Z,33.70
2018-07-13T17:59:49.998Z,33.70
2018-07-13T18:02:18.929Z,33.90
2018-07-13T18:04:48.119Z,33.60
2018-07-13T18:07:16.785Z,33.80
2018-07-13T18:09:45.987Z,34.20
2018-07-13T18:12:14.523Z,33.60
2018-07-13T18:14:43.077Z,33.50
2018-07-13T18:17:11.653Z,33.80
2018-07-13T18:19:41.332Z,33.70
2018-07-13T18:22:09.979Z,34.20
2018-07-13T18:24:39.118Z,34.50
2018-07-13T18:27:07.730Z,34.70
2018-07-13T18:29:36.261Z,34.80
2018-07-13T18:32:05.820Z,35.20
2018-07-13T18:34:34.410Z,35.60
2018-07-13T18:37:03.028Z,35.70
2018-07-13T18:39:31.588Z,35.70
2018-07-13T18:42:00.240Z,36.00
2018-07-13T18:44:28.844Z,36.30
2018-07-13T18:46:57.384Z,36.50
2018-07-13T18:49:25.936Z,36.30
2018-07-13T18:51:54.837Z,36.40
2018-07-13T18:54:23.360Z,36.40
2018-07-13T18:56:52.425Z,36.90
2018-07-13T18:59:21.032Z,37.30
2018-07-13T19:01:49.584Z,37.20
2018-07-13T19:04:18.625Z,37.70
2018-07-13T19:06:47.262Z,38.00
2018-07-13T19:09:18.780Z,38.40
2018-07-13T19:11:47.842Z,38.80
2018-07-13T19:14:16.983Z,39.10
2018-07-13T19:16:45.482Z,39.50
2018-07-13T19:19:14.182Z,39.60
2018-07-13T19:21:42.727Z,40.00
2018-07-13T19:24:11.463Z,40.20
2018-07-13T19:26:40.270Z,40.50
2018-07-13T19:29:08.903Z,40.80
2018-07-13T19:31:37.554Z,41.00
2018-07-13T19:34:06.516Z,41.20
2018-07-13T19:36:35.183Z,41.20
2018-07-13T19:39:04.948Z,41.50
2018-07-13T19:41:33.555Z,41.50
2018-07-13T19:44:02.113Z,41.80
2018-07-13T19:46:30.714Z,42.00
2018-07-13T19:48:59.303Z,41.90
2018-07-13T19:51:27.914Z,42.00
2018-07-13T19:53:57.083Z,42.10
2018-07-13T19:56:25.712Z,42.30
2018-07-13T19:58:54.294Z,42.40
2018-07-13T20:01:23.100Z,43.10
2018-07-13T20:03:52.504Z,42.70
2018-07-13T20:06:21.836Z,42.80
2018-07-13T20:08:51.222Z,43.00
2018-07-13T20:11:21.436Z,43.10
2018-07-13T20:16:20.408Z,43.40
2018-07-13T20:18:51.480Z,43.40
2018-07-13T20:21:28.521Z,43.70
2018-07-13T20:23:59.783Z,43.80
2018-07-13T20:26:29.127Z,43.80
2018-07-13T20:28:57.954Z,44.10
2018-07-13T20:31:27.382Z,44.20
2018-07-13T20:36:29.465Z,44.40
2018-07-13T20:39:00.200Z,44.50
2018-07-13T20:41:29.021Z,44.60
2018-07-13T20:43:57.890Z,44.70
2018-07-13T20:46:26.993Z,44.80
2018-07-13T20:48:56.863Z,45.30
2018-07-13T20:51:25.602Z,44.80
2018-07-13T20:53:56.010Z,45.10
2018-07-13T20:56:26.486Z,45.20
2018-07-13T20:58:58.099Z,45.20
2018-07-13T21:01:30.171Z,45.20
2018-07-13T21:04:02.357Z,46.10
2018-07-13T21:06:31.668Z,45.80
2018-07-13T21:09:01.629Z,46.00
2018-07-13T21:11:33.292Z,46.10
2018-07-13T21:14:04.925Z,46.20
2018-07-13T21:19:08.472Z,46.50
2018-07-13T21:21:39.865Z,46.40
2018-07-13T21:24:11.557Z,46.50
2018-07-13T21:26:42.080Z,46.60
2018-07-13T21:29:13.112Z,46.80
2018-07-13T21:31:43.688Z,47.00
2018-07-13T21:34:12.493Z,47.00
2018-07-13T21:39:12.773Z,47.40
2018-07-13T21:41:43.293Z,47.60
2018-07-13T21:44:13.250Z,47.90
2018-07-13T21:46:41.877Z,48.00
2018-07-13T21:49:11.196Z,48.00
2018-07-13T21:51:41.346Z,48.30
2018-07-13T21:54:10.587Z,48.40
2018-07-13T21:59:09.057Z,48.70
2018-07-13T22:01:39.415Z,48.70
2018-07-13T22:04:10.319Z,48.70
2018-07-13T22:06:39.935Z,48.70
2018-07-13T22:09:10.139Z,48.70
2018-07-13T22:11:40.580Z,48.70
2018-07-13T22:14:10.452Z,48.60
2018-07-13T22:16:40.308Z,48.80
2018-07-13T22:19:10.126Z,49.10
2018-07-13T22:21:40.824Z,49.40
2018-07-13T22:24:11.174Z,49.30
2018-07-13T22:26:41.379Z,49.30
2018-07-13T22:29:11.826Z,49.50
2018-07-13T22:31:42.868Z,49.40
2018-07-13T22:34:13.056Z,49.50
2018-07-13T22:36:43.822Z,49.60
2018-07-13T22:39:12.602Z,49.70
2018-07-13T22:41:43.398Z,50.00
2018-07-13T22:44:13.556Z,50.10
2018-07-13T22:46:42.232Z,50.20
2018-07-13T22:49:12.144Z,50.80
2018-07-13T22:51:41.344Z,50.20
2018-07-13T22:54:10.859Z,50.50
2018-07-13T22:56:41.059Z,50.50
2018-07-13T22:59:10.082Z,50.70
2018-07-13T23:01:39.497Z,50.90
2018-07-13T23:04:08.198Z,50.90
2018-07-13T23:06:37.034Z,51.10
2018-07-13T23:09:06.341Z,51.20
2018-07-13T23:11:35.323Z,51.10
2018-07-13T23:14:03.862Z,51.00
2018-07-13T23:16:32.671Z,51.10
2018-07-13T23:19:01.184Z,51.20
2018-07-13T23:21:29.837Z,51.30
2018-07-13T23:23:58.919Z,51.30
2018-07-13T23:26:28.020Z,51.50
2018-07-13T23:28:56.572Z,51.60
2018-07-13T23:31:25.468Z,51.70
2018-07-13T23:33:54.405Z,51.70
2018-07-13T23:36:23.053Z,51.90
2018-07-13T23:38:51.658Z,52.00
2018-07-13T23:41:20.288Z,51.90
2018-07-13T23:43:48.989Z,52.00
2018-07-13T23:46:17.850Z,52.10
2018-07-13T23:48:46.639Z,52.10
2018-07-13T23:51:15.977Z,52.20
2018-07-13T23:53:44.743Z,52.30
2018-07-13T23:56:13.439Z,52.50
2018-07-13T23:58:42.236Z,52.70
